Terminal Aerodrome Forecast
Issued by NWS Huntsville, AL

Home | Current Version | Previous Version | Text Only | Print | Product List | Glossary On
Versions: 1 2 3 4 5 6 7 8 9 10 11 12 13
000
FTUS44 KHUN 291120
TAFMSL
TAF
KMSL 291120Z 2912/3012 VRB05KT P6SM VCSH SCT015 BKN100
     FM291800 28007KT P6SM VCTS BKN040CB
     FM300100 VRB03KT P6SM BKN100
     FM300900 VRB02KT 4SM BR SCT250=

USA.gov is the U.S. government's official web portal to all federal, state and local government web resources and services.